sensor_id;sensor_type;location;lat;lon;timestamp;P1;durP1;ratioP1;P2;durP2;ratioP2
46266;SDS011;31998;48.798;15.066;2023-05-20T00:02:01;51.47;;;33.80;;
46266;SDS011;31998;48.798;15.066;2023-05-20T00:04:26;63.73;;;36.20;;
46266;SDS011;31998;48.798;15.066;2023-05-20T00:06:51;45.30;;;35.10;;
46266;SDS011;31998;48.798;15.066;2023-05-20T00:09:17;48.23;;;34.87;;
46266;SDS011;31998;48.798;15.066;2023-05-20T00:11:42;51.17;;;36.30;;
46266;SDS011;31998;48.798;15.066;2023-05-20T00:14:07;46.93;;;34.20;;
46266;SDS011;31998;48.798;15.066;2023-05-20T00:16:32;46.77;;;35.50;;
46266;SDS011;31998;48.798;15.066;2023-05-20T00:18:58;54.20;;;38.00;;
46266;SDS011;31998;48.798;15.066;2023-05-20T00:21:23;59.50;;;37.93;;
46266;SDS011;31998;48.798;15.066;2023-05-20T00:23:48;54.93;;;38.63;;
46266;SDS011;31998;48.798;15.066;2023-05-20T00:26:13;59.77;;;39.20;;
46266;SDS011;31998;48.798;15.066;2023-05-20T00:28:39;53.33;;;36.67;;
46266;SDS011;31998;48.798;15.066;2023-05-20T00:31:04;52.10;;;37.40;;
46266;SDS011;31998;48.798;15.066;2023-05-20T00:33:29;50.97;;;35.73;;
46266;SDS011;31998;48.798;15.066;2023-05-20T00:35:55;55.07;;;38.73;;
46266;SDS011;31998;48.798;15.066;2023-05-20T00:38:20;55.33;;;40.40;;
46266;SDS011;31998;48.798;15.066;2023-05-20T00:40:45;57.93;;;39.47;;
46266;SDS011;31998;48.798;15.066;2023-05-20T00:43:10;56.70;;;40.23;;
46266;SDS011;31998;48.798;15.066;2023-05-20T00:45:36;60.27;;;40.93;;
46266;SDS011;31998;48.798;15.066;2023-05-20T00:48:01;67.50;;;41.87;;
46266;SDS011;31998;48.798;15.066;2023-05-20T00:50:28;57.93;;;38.63;;
46266;SDS011;31998;48.798;15.066;2023-05-20T00:52:53;62.07;;;42.00;;
46266;SDS011;31998;48.798;15.066;2023-05-20T00:55:19;61.30;;;40.07;;
46266;SDS011;31998;48.798;15.066;2023-05-20T00:57:44;58.80;;;39.43;;
46266;SDS011;31998;48.798;15.066;2023-05-20T01:00:10;61.53;;;40.77;;
46266;SDS011;31998;48.798;15.066;2023-05-20T01:02:35;51.27;;;37.33;;
46266;SDS011;31998;48.798;15.066;2023-05-20T01:05:00;56.30;;;38.97;;
46266;SDS011;31998;48.798;15.066;2023-05-20T01:07:26;58.00;;;38.90;;
46266;SDS011;31998;48.798;15.066;2023-05-20T01:09:51;63.23;;;40.83;;
46266;SDS011;31998;48.798;15.066;2023-05-20T01:12:34;60.00;;;40.13;;
46266;SDS011;31998;48.798;15.066;2023-05-20T01:15:03;58.77;;;40.37;;
46266;SDS011;31998;48.798;15.066;2023-05-20T01:17:30;59.10;;;40.67;;
46266;SDS011;31998;48.798;15.066;2023-05-20T01:19:57;59.70;;;39.13;;
46266;SDS011;31998;48.798;15.066;2023-05-20T01:22:26;62.33;;;38.83;;
46266;SDS011;31998;48.798;15.066;2023-05-20T01:24:52;64.17;;;41.47;;
46266;SDS011;31998;48.798;15.066;2023-05-20T01:27:17;64.57;;;42.50;;
46266;SDS011;31998;48.798;15.066;2023-05-20T01:29:44;58.40;;;40.90;;
46266;SDS011;31998;48.798;15.066;2023-05-20T01:32:11;68.43;;;44.30;;
46266;SDS011;31998;48.798;15.066;2023-05-20T01:34:39;70.80;;;45.33;;
46266;SDS011;31998;48.798;15.066;2023-05-20T01:37:05;71.90;;;45.17;;
46266;SDS011;31998;48.798;15.066;2023-05-20T01:39:32;67.47;;;44.00;;
46266;SDS011;31998;48.798;15.066;2023-05-20T01:41:58;80.87;;;45.03;;
46266;SDS011;31998;48.798;15.066;2023-05-20T01:44:24;71.50;;;44.23;;
46266;SDS011;31998;48.798;15.066;2023-05-20T01:46:49;71.43;;;44.13;;
46266;SDS011;31998;48.798;15.066;2023-05-20T01:49:14;68.63;;;45.17;;
46266;SDS011;31998;48.798;15.066;2023-05-20T01:51:40;69.00;;;45.20;;
46266;SDS011;31998;48.798;15.066;2023-05-20T01:54:05;74.83;;;46.97;;
46266;SDS011;31998;48.798;15.066;2023-05-20T01:56:30;73.17;;;44.43;;
46266;SDS011;31998;48.798;15.066;2023-05-20T01:58:55;76.30;;;45.93;;
46266;SDS011;31998;48.798;15.066;2023-05-20T02:01:21;76.80;;;46.70;;
46266;SDS011;31998;48.798;15.066;2023-05-20T02:03:46;67.10;;;45.60;;
46266;SDS011;31998;48.798;15.066;2023-05-20T02:06:11;79.47;;;47.33;;
46266;SDS011;31998;48.798;15.066;2023-05-20T02:08:36;79.97;;;47.33;;
46266;SDS011;31998;48.798;15.066;2023-05-20T02:11:02;83.23;;;47.50;;
46266;SDS011;31998;48.798;15.066;2023-05-20T02:13:27;76.17;;;46.90;;
46266;SDS011;31998;48.798;15.066;2023-05-20T02:15:52;82.40;;;49.40;;
46266;SDS011;31998;48.798;15.066;2023-05-20T02:18:17;74.93;;;45.47;;
46266;SDS011;31998;48.798;15.066;2023-05-20T02:20:43;74.60;;;45.83;;
46266;SDS011;31998;48.798;15.066;2023-05-20T02:23:08;77.73;;;45.43;;
46266;SDS011;31998;48.798;15.066;2023-05-20T02:25:33;78.67;;;47.23;;
46266;SDS011;31998;48.798;15.066;2023-05-20T02:27:58;90.83;;;48.50;;
46266;SDS011;31998;48.798;15.066;2023-05-20T02:30:24;81.40;;;47.37;;
46266;SDS011;31998;48.798;15.066;2023-05-20T02:32:50;82.77;;;46.60;;
46266;SDS011;31998;48.798;15.066;2023-05-20T02:35:15;85.63;;;47.40;;
46266;SDS011;31998;48.798;15.066;2023-05-20T02:37:40;95.57;;;51.10;;
46266;SDS011;31998;48.798;15.066;2023-05-20T02:40:06;83.97;;;49.53;;
46266;SDS011;31998;48.798;15.066;2023-05-20T02:42:33;75.40;;;44.67;;
46266;SDS011;31998;48.798;15.066;2023-05-20T02:44:58;82.77;;;48.03;;
46266;SDS011;31998;48.798;15.066;2023-05-20T02:47:24;82.20;;;44.30;;
46266;SDS011;31998;48.798;15.066;2023-05-20T02:49:49;74.47;;;43.93;;
46266;SDS011;31998;48.798;15.066;2023-05-20T02:52:14;76.37;;;45.13;;
46266;SDS011;31998;48.798;15.066;2023-05-20T02:54:40;75.63;;;42.93;;
46266;SDS011;31998;48.798;15.066;2023-05-20T02:57:05;82.97;;;46.00;;
46266;SDS011;31998;48.798;15.066;2023-05-20T02:59:31;86.63;;;45.77;;
46266;SDS011;31998;48.798;15.066;2023-05-20T03:01:56;76.33;;;43.13;;
46266;SDS011;31998;48.798;15.066;2023-05-20T03:04:21;88.83;;;46.97;;
46266;SDS011;31998;48.798;15.066;2023-05-20T03:06:46;91.30;;;43.03;;
46266;SDS011;31998;48.798;15.066;2023-05-20T03:09:12;97.87;;;47.60;;
46266;SDS011;31998;48.798;15.066;2023-05-20T03:11:38;97.47;;;45.70;;
46266;SDS011;31998;48.798;15.066;2023-05-20T03:14:03;88.70;;;46.60;;
46266;SDS011;31998;48.798;15.066;2023-05-20T03:16:28;89.80;;;44.90;;
46266;SDS011;31998;48.798;15.066;2023-05-20T03:18:53;85.20;;;45.93;;
46266;SDS011;31998;48.798;15.066;2023-05-20T03:21:19;87.57;;;45.10;;
46266;SDS011;31998;48.798;15.066;2023-05-20T03:23:44;88.23;;;45.67;;
46266;SDS011;31998;48.798;15.066;2023-05-20T03:26:09;98.67;;;47.50;;
46266;SDS011;31998;48.798;15.066;2023-05-20T03:28:35;85.53;;;46.17;;
46266;SDS011;31998;48.798;15.066;2023-05-20T03:31:00;87.50;;;44.87;;
46266;SDS011;31998;48.798;15.066;2023-05-20T03:33:26;100.80;;;45.93;;
46266;SDS011;31998;48.798;15.066;2023-05-20T03:35:51;90.43;;;44.30;;
46266;SDS011;31998;48.798;15.066;2023-05-20T03:38:17;81.93;;;44.80;;
46266;SDS011;31998;48.798;15.066;2023-05-20T03:40:42;83.70;;;42.87;;
46266;SDS011;31998;48.798;15.066;2023-05-20T03:43:07;73.40;;;44.13;;
46266;SDS011;31998;48.798;15.066;2023-05-20T03:45:32;81.40;;;46.17;;
46266;SDS011;31998;48.798;15.066;2023-05-20T03:47:58;82.20;;;46.03;;
46266;SDS011;31998;48.798;15.066;2023-05-20T03:50:23;79.47;;;43.30;;
46266;SDS011;31998;48.798;15.066;2023-05-20T03:52:49;70.53;;;41.87;;
46266;SDS011;31998;48.798;15.066;2023-05-20T03:55:14;67.57;;;42.43;;
46266;SDS011;31998;48.798;15.066;2023-05-20T03:57:40;71.03;;;40.73;;
46266;SDS011;31998;48.798;15.066;2023-05-20T04:00:05;67.57;;;40.80;;
46266;SDS011;31998;48.798;15.066;2023-05-20T04:02:35;68.63;;;42.70;;
46266;SDS011;31998;48.798;15.066;2023-05-20T04:05:00;76.20;;;42.37;;
46266;SDS011;31998;48.798;15.066;2023-05-20T04:07:26;72.30;;;42.40;;
46266;SDS011;31998;48.798;15.066;2023-05-20T04:09:51;73.03;;;43.60;;
46266;SDS011;31998;48.798;15.066;2023-05-20T04:12:16;71.97;;;40.00;;
46266;SDS011;31998;48.798;15.066;2023-05-20T04:14:43;72.60;;;42.87;;
46266;SDS011;31998;48.798;15.066;2023-05-20T04:17:08;73.57;;;41.00;;
46266;SDS011;31998;48.798;15.066;2023-05-20T04:19:34;73.77;;;41.40;;
46266;SDS011;31998;48.798;15.066;2023-05-20T04:22:00;71.97;;;42.20;;
46266;SDS011;31998;48.798;15.066;2023-05-20T04:24:25;80.73;;;42.87;;
46266;SDS011;31998;48.798;15.066;2023-05-20T04:26:51;71.67;;;41.17;;
46266;SDS011;31998;48.798;15.066;2023-05-20T04:29:17;70.90;;;41.30;;
46266;SDS011;31998;48.798;15.066;2023-05-20T04:31:44;77.30;;;41.93;;
46266;SDS011;31998;48.798;15.066;2023-05-20T04:34:09;72.43;;;39.40;;
46266;SDS011;31998;48.798;15.066;2023-05-20T04:36:34;69.57;;;40.47;;
46266;SDS011;31998;48.798;15.066;2023-05-20T04:39:02;69.03;;;41.60;;
46266;SDS011;31998;48.798;15.066;2023-05-20T04:41:27;66.00;;;40.23;;
46266;SDS011;31998;48.798;15.066;2023-05-20T04:43:53;68.80;;;41.50;;
46266;SDS011;31998;48.798;15.066;2023-05-20T04:46:18;66.73;;;41.47;;
46266;SDS011;31998;48.798;15.066;2023-05-20T04:48:44;80.67;;;42.97;;
46266;SDS011;31998;48.798;15.066;2023-05-20T04:51:09;70.97;;;42.13;;
46266;SDS011;31998;48.798;15.066;2023-05-20T04:53:35;68.23;;;39.20;;
46266;SDS011;31998;48.798;15.066;2023-05-20T04:56:00;74.80;;;41.40;;
46266;SDS011;31998;48.798;15.066;2023-05-20T04:58:25;80.13;;;42.00;;
46266;SDS011;31998;48.798;15.066;2023-05-20T05:00:53;77.30;;;42.37;;
46266;SDS011;31998;48.798;15.066;2023-05-20T05:03:18;81.30;;;42.53;;
46266;SDS011;31998;48.798;15.066;2023-05-20T05:05:44;78.40;;;42.10;;
46266;SDS011;31998;48.798;15.066;2023-05-20T05:08:09;74.80;;;42.90;;
46266;SDS011;31998;48.798;15.066;2023-05-20T05:10:37;78.60;;;42.90;;
46266;SDS011;31998;48.798;15.066;2023-05-20T05:13:03;76.93;;;43.70;;
46266;SDS011;31998;48.798;15.066;2023-05-20T05:15:28;75.90;;;40.33;;
46266;SDS011;31998;48.798;15.066;2023-05-20T05:17:54;68.83;;;40.73;;
46266;SDS011;31998;48.798;15.066;2023-05-20T05:20:19;73.47;;;41.40;;
46266;SDS011;31998;48.798;15.066;2023-05-20T05:22:44;72.73;;;39.77;;
46266;SDS011;31998;48.798;15.066;2023-05-20T05:25:10;72.87;;;40.80;;
46266;SDS011;31998;48.798;15.066;2023-05-20T05:27:35;78.20;;;41.30;;
46266;SDS011;31998;48.798;15.066;2023-05-20T05:30:02;73.20;;;39.30;;
46266;SDS011;31998;48.798;15.066;2023-05-20T05:32:27;64.83;;;38.87;;
46266;SDS011;31998;48.798;15.066;2023-05-20T05:34:52;55.53;;;35.43;;
46266;SDS011;31998;48.798;15.066;2023-05-20T05:37:18;58.50;;;34.97;;
46266;SDS011;31998;48.798;15.066;2023-05-20T05:39:43;57.73;;;33.20;;
46266;SDS011;31998;48.798;15.066;2023-05-20T05:42:08;55.50;;;35.17;;
46266;SDS011;31998;48.798;15.066;2023-05-20T05:44:33;55.93;;;32.97;;
46266;SDS011;31998;48.798;15.066;2023-05-20T05:46:59;48.27;;;31.90;;
46266;SDS011;31998;48.798;15.066;2023-05-20T05:49:24;47.27;;;30.10;;
46266;SDS011;31998;48.798;15.066;2023-05-20T05:51:49;41.33;;;27.63;;
46266;SDS011;31998;48.798;15.066;2023-05-20T05:54:15;39.87;;;27.63;;
46266;SDS011;31998;48.798;15.066;2023-05-20T05:56:40;44.80;;;28.40;;
46266;SDS011;31998;48.798;15.066;2023-05-20T05:59:05;42.30;;;26.57;;
46266;SDS011;31998;48.798;15.066;2023-05-20T06:01:30;38.97;;;27.57;;
46266;SDS011;31998;48.798;15.066;2023-05-20T06:03:56;42.63;;;27.07;;
46266;SDS011;31998;48.798;15.066;2023-05-20T06:06:21;53.03;;;29.40;;
46266;SDS011;31998;48.798;15.066;2023-05-20T06:08:46;42.87;;;28.73;;
46266;SDS011;31998;48.798;15.066;2023-05-20T06:11:11;48.67;;;29.10;;
46266;SDS011;31998;48.798;15.066;2023-05-20T06:13:37;47.20;;;29.93;;
46266;SDS011;31998;48.798;15.066;2023-05-20T06:16:02;49.73;;;29.43;;
46266;SDS011;31998;48.798;15.066;2023-05-20T06:18:27;42.73;;;29.07;;
46266;SDS011;31998;48.798;15.066;2023-05-20T06:20:53;39.60;;;28.30;;
46266;SDS011;31998;48.798;15.066;2023-05-20T06:23:18;49.63;;;30.77;;
46266;SDS011;31998;48.798;15.066;2023-05-20T06:25:44;39.23;;;27.53;;
46266;SDS011;31998;48.798;15.066;2023-05-20T06:28:09;53.37;;;30.17;;
46266;SDS011;31998;48.798;15.066;2023-05-20T06:30:34;41.30;;;29.50;;
46266;SDS011;31998;48.798;15.066;2023-05-20T06:33:00;44.80;;;28.50;;
46266;SDS011;31998;48.798;15.066;2023-05-20T06:35:28;48.80;;;28.77;;
46266;SDS011;31998;48.798;15.066;2023-05-20T06:37:54;46.13;;;29.07;;
46266;SDS011;31998;48.798;15.066;2023-05-20T06:40:19;40.23;;;28.60;;
46266;SDS011;31998;48.798;15.066;2023-05-20T06:42:44;45.50;;;30.47;;
46266;SDS011;31998;48.798;15.066;2023-05-20T06:45:10;42.37;;;29.60;;
46266;SDS011;31998;48.798;15.066;2023-05-20T06:47:35;49.53;;;31.60;;
46266;SDS011;31998;48.798;15.066;2023-05-20T06:50:01;42.77;;;29.73;;
46266;SDS011;31998;48.798;15.066;2023-05-20T06:52:26;37.33;;;27.60;;
46266;SDS011;31998;48.798;15.066;2023-05-20T06:54:52;43.40;;;27.40;;
46266;SDS011;31998;48.798;15.066;2023-05-20T06:57:17;34.13;;;26.20;;
46266;SDS011;31998;48.798;15.066;2023-05-20T06:59:42;37.07;;;27.33;;
46266;SDS011;31998;48.798;15.066;2023-05-20T07:02:07;33.60;;;24.23;;
46266;SDS011;31998;48.798;15.066;2023-05-20T07:04:33;35.40;;;25.17;;
46266;SDS011;31998;48.798;15.066;2023-05-20T07:06:58;33.10;;;24.90;;
46266;SDS011;31998;48.798;15.066;2023-05-20T07:09:23;29.80;;;25.00;;
46266;SDS011;31998;48.798;15.066;2023-05-20T07:11:48;41.97;;;27.90;;
46266;SDS011;31998;48.798;15.066;2023-05-20T07:14:14;31.47;;;23.97;;
46266;SDS011;31998;48.798;15.066;2023-05-20T07:16:39;26.63;;;22.33;;
46266;SDS011;31998;48.798;15.066;2023-05-20T07:19:05;28.70;;;23.33;;
46266;SDS011;31998;48.798;15.066;2023-05-20T07:21:30;32.10;;;24.63;;
46266;SDS011;31998;48.798;15.066;2023-05-20T07:23:55;38.43;;;24.53;;
46266;SDS011;31998;48.798;15.066;2023-05-20T07:26:20;33.10;;;25.20;;
46266;SDS011;31998;48.798;15.066;2023-05-20T07:28:46;32.60;;;23.77;;
46266;SDS011;31998;48.798;15.066;2023-05-20T07:31:11;26.53;;;23.20;;
46266;SDS011;31998;48.798;15.066;2023-05-20T07:33:37;34.20;;;25.43;;
46266;SDS011;31998;48.798;15.066;2023-05-20T07:36:03;37.93;;;24.87;;
46266;SDS011;31998;48.798;15.066;2023-05-20T07:38:28;44.73;;;27.07;;
46266;SDS011;31998;48.798;15.066;2023-05-20T07:40:53;32.83;;;23.40;;
46266;SDS011;31998;48.798;15.066;2023-05-20T07:43:18;30.50;;;24.23;;
46266;SDS011;31998;48.798;15.066;2023-05-20T07:45:43;32.53;;;25.33;;
46266;SDS011;31998;48.798;15.066;2023-05-20T07:48:09;29.53;;;23.03;;
46266;SDS011;31998;48.798;15.066;2023-05-20T07:50:35;34.60;;;23.77;;
46266;SDS011;31998;48.798;15.066;2023-05-20T07:53:00;25.83;;;22.20;;
46266;SDS011;31998;48.798;15.066;2023-05-20T07:55:25;27.53;;;22.90;;
46266;SDS011;31998;48.798;15.066;2023-05-20T07:57:50;30.07;;;22.50;;
46266;SDS011;31998;48.798;15.066;2023-05-20T08:00:16;30.97;;;23.77;;
46266;SDS011;31998;48.798;15.066;2023-05-20T08:02:41;34.30;;;22.17;;
46266;SDS011;31998;48.798;15.066;2023-05-20T08:05:06;29.60;;;22.70;;
46266;SDS011;31998;48.798;15.066;2023-05-20T08:07:32;31.13;;;23.57;;
46266;SDS011;31998;48.798;15.066;2023-05-20T08:09:57;29.77;;;23.13;;
46266;SDS011;31998;48.798;15.066;2023-05-20T08:12:23;26.60;;;22.07;;
46266;SDS011;31998;48.798;15.066;2023-05-20T08:14:48;25.07;;;21.60;;
46266;SDS011;31998;48.798;15.066;2023-05-20T08:17:13;30.13;;;22.47;;
46266;SDS011;31998;48.798;15.066;2023-05-20T08:19:38;28.10;;;22.63;;
46266;SDS011;31998;48.798;15.066;2023-05-20T08:22:04;28.97;;;21.67;;
46266;SDS011;31998;48.798;15.066;2023-05-20T08:24:30;22.50;;;19.53;;
46266;SDS011;31998;48.798;15.066;2023-05-20T08:26:55;23.27;;;20.20;;
46266;SDS011;31998;48.798;15.066;2023-05-20T08:29:20;26.77;;;20.90;;
46266;SDS011;31998;48.798;15.066;2023-05-20T08:31:45;24.50;;;19.43;;
46266;SDS011;31998;48.798;15.066;2023-05-20T08:34:11;23.93;;;20.90;;
46266;SDS011;31998;48.798;15.066;2023-05-20T08:36:36;22.50;;;19.47;;
46266;SDS011;31998;48.798;15.066;2023-05-20T08:39:01;21.77;;;19.43;;
46266;SDS011;31998;48.798;15.066;2023-05-20T08:41:26;25.33;;;20.43;;
46266;SDS011;31998;48.798;15.066;2023-05-20T08:43:52;22.30;;;18.60;;
46266;SDS011;31998;48.798;15.066;2023-05-20T08:46:17;24.27;;;19.10;;
46266;SDS011;31998;48.798;15.066;2023-05-20T08:48:43;24.03;;;17.70;;
46266;SDS011;31998;48.798;15.066;2023-05-20T08:51:08;21.43;;;17.93;;
46266;SDS011;31998;48.798;15.066;2023-05-20T08:53:35;20.00;;;17.97;;
46266;SDS011;31998;48.798;15.066;2023-05-20T08:56:00;22.03;;;16.80;;
46266;SDS011;31998;48.798;15.066;2023-05-20T08:58:30;21.33;;;18.90;;
46266;SDS011;31998;48.798;15.066;2023-05-20T09:00:56;21.47;;;17.77;;
46266;SDS011;31998;48.798;15.066;2023-05-20T09:03:22;21.17;;;16.53;;
46266;SDS011;31998;48.798;15.066;2023-05-20T09:05:49;19.37;;;16.73;;
46266;SDS011;31998;48.798;15.066;2023-05-20T09:08:15;16.97;;;14.83;;
46266;SDS011;31998;48.798;15.066;2023-05-20T09:10:40;15.00;;;13.43;;
46266;SDS011;31998;48.798;15.066;2023-05-20T09:13:06;15.00;;;13.70;;
46266;SDS011;31998;48.798;15.066;2023-05-20T09:15:32;19.37;;;14.10;;
46266;SDS011;31998;48.798;15.066;2023-05-20T09:18:01;19.43;;;12.63;;
46266;SDS011;31998;48.798;15.066;2023-05-20T09:20:27;18.83;;;13.93;;
46266;SDS011;31998;48.798;15.066;2023-05-20T09:22:59;20.10;;;14.17;;
46266;SDS011;31998;48.798;15.066;2023-05-20T09:25:24;14.20;;;12.90;;
46266;SDS011;31998;48.798;15.066;2023-05-20T09:27:50;13.60;;;12.20;;
46266;SDS011;31998;48.798;15.066;2023-05-20T09:30:18;13.53;;;11.43;;
46266;SDS011;31998;48.798;15.066;2023-05-20T09:32:44;14.00;;;12.50;;
46266;SDS011;31998;48.798;15.066;2023-05-20T09:35:12;13.40;;;12.20;;
46266;SDS011;31998;48.798;15.066;2023-05-20T09:37:37;11.97;;;10.87;;
46266;SDS011;31998;48.798;15.066;2023-05-20T09:40:06;12.13;;;10.97;;
46266;SDS011;31998;48.798;15.066;2023-05-20T09:42:38;12.23;;;11.07;;
46266;SDS011;31998;48.798;15.066;2023-05-20T09:45:04;13.40;;;12.10;;
46266;SDS011;31998;48.798;15.066;2023-05-20T09:47:29;13.23;;;12.00;;
46266;SDS011;31998;48.798;15.066;2023-05-20T09:49:56;12.50;;;11.30;;
46266;SDS011;31998;48.798;15.066;2023-05-20T09:52:21;12.50;;;11.30;;
46266;SDS011;31998;48.798;15.066;2023-05-20T09:54:46;12.50;;;10.87;;
46266;SDS011;31998;48.798;15.066;2023-05-20T09:57:12;13.07;;;11.77;;
46266;SDS011;31998;48.798;15.066;2023-05-20T09:59:38;12.97;;;11.80;;
46266;SDS011;31998;48.798;15.066;2023-05-20T10:02:04;13.70;;;10.93;;
46266;SDS011;31998;48.798;15.066;2023-05-20T10:04:30;19.13;;;12.27;;
46266;SDS011;31998;48.798;15.066;2023-05-20T10:07:01;13.37;;;11.90;;
46266;SDS011;31998;48.798;15.066;2023-05-20T10:12:06;16.00;;;11.80;;
46266;SDS011;31998;48.798;15.066;2023-05-20T10:17:32;16.13;;;13.57;;
46266;SDS011;31998;48.798;15.066;2023-05-20T10:20:00;13.67;;;12.33;;
46266;SDS011;31998;48.798;15.066;2023-05-20T10:22:26;13.90;;;12.40;;
46266;SDS011;31998;48.798;15.066;2023-05-20T10:24:59;15.13;;;12.47;;
46266;SDS011;31998;48.798;15.066;2023-05-20T10:27:24;13.70;;;12.47;;
46266;SDS011;31998;48.798;15.066;2023-05-20T10:29:50;14.50;;;12.57;;
46266;SDS011;31998;48.798;15.066;2023-05-20T10:32:23;14.47;;;13.17;;
46266;SDS011;31998;48.798;15.066;2023-05-20T10:34:49;15.60;;;12.47;;
46266;SDS011;31998;48.798;15.066;2023-05-20T10:37:24;20.87;;;13.77;;
46266;SDS011;31998;48.798;15.066;2023-05-20T10:39:50;16.07;;;13.40;;
46266;SDS011;31998;48.798;15.066;2023-05-20T10:42:16;15.37;;;13.57;;
46266;SDS011;31998;48.798;15.066;2023-05-20T10:44:51;15.30;;;13.90;;
46266;SDS011;31998;48.798;15.066;2023-05-20T10:47:16;15.27;;;13.70;;
46266;SDS011;31998;48.798;15.066;2023-05-20T10:49:45;17.87;;;13.60;;
46266;SDS011;31998;48.798;15.066;2023-05-20T10:52:20;16.47;;;14.87;;
46266;SDS011;31998;48.798;15.066;2023-05-20T10:54:46;17.83;;;14.57;;
46266;SDS011;31998;48.798;15.066;2023-05-20T10:57:12;15.07;;;13.57;;
46266;SDS011;31998;48.798;15.066;2023-05-20T10:59:38;19.07;;;14.90;;
46266;SDS011;31998;48.798;15.066;2023-05-20T11:02:03;15.47;;;12.73;;
46266;SDS011;31998;48.798;15.066;2023-05-20T11:04:29;15.87;;;14.30;;
46266;SDS011;31998;48.798;15.066;2023-05-20T11:06:55;14.10;;;12.80;;
46266;SDS011;31998;48.798;15.066;2023-05-20T11:09:22;15.60;;;14.10;;
46266;SDS011;31998;48.798;15.066;2023-05-20T11:11:48;16.03;;;12.83;;
46266;SDS011;31998;48.798;15.066;2023-05-20T11:14:16;18.43;;;14.20;;
46266;SDS011;31998;48.798;15.066;2023-05-20T11:16:44;17.07;;;12.87;;
46266;SDS011;31998;48.798;15.066;2023-05-20T11:19:16;18.77;;;13.20;;
46266;SDS011;31998;48.798;15.066;2023-05-20T11:21:45;15.17;;;13.57;;
46266;SDS011;31998;48.798;15.066;2023-05-20T11:24:11;15.90;;;12.50;;
46266;SDS011;31998;48.798;15.066;2023-05-20T11:26:37;14.20;;;12.90;;
46266;SDS011;31998;48.798;15.066;2023-05-20T11:29:02;17.00;;;13.53;;
46266;SDS011;31998;48.798;15.066;2023-05-20T11:31:29;14.03;;;12.73;;
46266;SDS011;31998;48.798;15.066;2023-05-20T11:33:54;13.47;;;12.27;;
46266;SDS011;31998;48.798;15.066;2023-05-20T11:36:20;14.50;;;13.07;;
46266;SDS011;31998;48.798;15.066;2023-05-20T11:38:46;19.73;;;13.90;;
46266;SDS011;31998;48.798;15.066;2023-05-20T11:41:11;15.30;;;12.93;;
46266;SDS011;31998;48.798;15.066;2023-05-20T11:43:37;13.23;;;11.93;;
46266;SDS011;31998;48.798;15.066;2023-05-20T11:46:03;13.70;;;12.33;;
46266;SDS011;31998;48.798;15.066;2023-05-20T11:48:29;16.90;;;12.87;;
46266;SDS011;31998;48.798;15.066;2023-05-20T11:50:54;14.30;;;12.67;;
46266;SDS011;31998;48.798;15.066;2023-05-20T11:53:21;15.43;;;12.20;;
46266;SDS011;31998;48.798;15.066;2023-05-20T11:55:47;13.30;;;12.03;;
46266;SDS011;31998;48.798;15.066;2023-05-20T11:58:17;13.43;;;11.90;;
46266;SDS011;31998;48.798;15.066;2023-05-20T12:00:42;19.43;;;13.80;;
46266;SDS011;31998;48.798;15.066;2023-05-20T12:03:08;15.33;;;12.17;;
46266;SDS011;31998;48.798;15.066;2023-05-20T12:05:33;16.67;;;11.83;;
46266;SDS011;31998;48.798;15.066;2023-05-20T12:07:58;13.20;;;12.00;;
46266;SDS011;31998;48.798;15.066;2023-05-20T12:10:27;13.93;;;11.37;;
46266;SDS011;31998;48.798;15.066;2023-05-20T12:12:52;12.40;;;11.17;;
46266;SDS011;31998;48.798;15.066;2023-05-20T12:15:17;17.30;;;11.50;;
46266;SDS011;31998;48.798;15.066;2023-05-20T12:17:46;25.70;;;14.33;;
46266;SDS011;31998;48.798;15.066;2023-05-20T12:20:13;19.20;;;12.17;;
46266;SDS011;31998;48.798;15.066;2023-05-20T12:22:39;15.73;;;12.37;;
46266;SDS011;31998;48.798;15.066;2023-05-20T12:25:05;22.40;;;11.10;;
46266;SDS011;31998;48.798;15.066;2023-05-20T12:27:30;11.00;;;9.90;;
46266;SDS011;31998;48.798;15.066;2023-05-20T12:29:57;11.50;;;10.50;;
46266;SDS011;31998;48.798;15.066;2023-05-20T12:32:23;21.00;;;11.77;;
46266;SDS011;31998;48.798;15.066;2023-05-20T12:34:48;11.73;;;10.70;;
46266;SDS011;31998;48.798;15.066;2023-05-20T12:37:13;11.10;;;10.20;;
46266;SDS011;31998;48.798;15.066;2023-05-20T12:39:39;14.13;;;11.03;;
46266;SDS011;31998;48.798;15.066;2023-05-20T12:42:04;11.97;;;10.97;;
46266;SDS011;31998;48.798;15.066;2023-05-20T12:44:29;12.93;;;11.60;;
46266;SDS011;31998;48.798;15.066;2023-05-20T12:46:55;11.70;;;10.80;;
46266;SDS011;31998;48.798;15.066;2023-05-20T12:49:20;12.30;;;11.03;;
46266;SDS011;31998;48.798;15.066;2023-05-20T12:51:45;12.40;;;11.37;;
46266;SDS011;31998;48.798;15.066;2023-05-20T12:54:11;13.40;;;12.20;;
46266;SDS011;31998;48.798;15.066;2023-05-20T12:56:36;12.30;;;10.20;;
46266;SDS011;31998;48.798;15.066;2023-05-20T12:59:01;13.60;;;9.70;;
46266;SDS011;31998;48.798;15.066;2023-05-20T13:01:27;11.33;;;10.30;;
46266;SDS011;31998;48.798;15.066;2023-05-20T13:03:52;39.27;;;15.20;;
46266;SDS011;31998;48.798;15.066;2023-05-20T13:06:17;11.50;;;10.40;;
46266;SDS011;31998;48.798;15.066;2023-05-20T13:08:43;12.57;;;11.33;;
46266;SDS011;31998;48.798;15.066;2023-05-20T13:11:09;18.63;;;11.27;;
46266;SDS011;31998;48.798;15.066;2023-05-20T13:13:34;15.93;;;10.80;;
46266;SDS011;31998;48.798;15.066;2023-05-20T13:16:00;11.17;;;10.30;;
46266;SDS011;31998;48.798;15.066;2023-05-20T13:18:25;12.17;;;10.67;;
46266;SDS011;31998;48.798;15.066;2023-05-20T13:20:50;10.40;;;9.50;;
46266;SDS011;31998;48.798;15.066;2023-05-20T13:23:16;10.83;;;9.73;;
46266;SDS011;31998;48.798;15.066;2023-05-20T13:25:41;10.83;;;9.77;;
46266;SDS011;31998;48.798;15.066;2023-05-20T13:28:06;16.70;;;11.03;;
46266;SDS011;31998;48.798;15.066;2023-05-20T13:30:32;10.90;;;9.13;;
46266;SDS011;31998;48.798;15.066;2023-05-20T13:32:57;11.13;;;9.90;;
46266;SDS011;31998;48.798;15.066;2023-05-20T13:35:22;17.77;;;9.80;;
46266;SDS011;31998;48.798;15.066;2023-05-20T13:37:47;10.70;;;9.70;;
46266;SDS011;31998;48.798;15.066;2023-05-20T13:40:13;11.00;;;10.00;;
46266;SDS011;31998;48.798;15.066;2023-05-20T13:42:38;10.37;;;9.57;;
46266;SDS011;31998;48.798;15.066;2023-05-20T13:45:03;10.83;;;9.93;;
46266;SDS011;31998;48.798;15.066;2023-05-20T13:47:30;17.33;;;10.50;;
46266;SDS011;31998;48.798;15.066;2023-05-20T13:49:55;11.97;;;10.00;;
46266;SDS011;31998;48.798;15.066;2023-05-20T13:52:20;10.67;;;9.77;;
46266;SDS011;31998;48.798;15.066;2023-05-20T13:54:45;11.23;;;10.23;;
46266;SDS011;31998;48.798;15.066;2023-05-20T13:57:12;10.83;;;9.80;;
46266;SDS011;31998;48.798;15.066;2023-05-20T13:59:37;9.43;;;8.70;;
46266;SDS011;31998;48.798;15.066;2023-05-20T14:02:03;10.70;;;9.70;;
46266;SDS011;31998;48.798;15.066;2023-05-20T14:04:29;11.73;;;10.00;;
46266;SDS011;31998;48.798;15.066;2023-05-20T14:06:55;17.83;;;9.87;;